Terminal Aerodrome Forecast
Issued by NWS Tuscon, AZ

Home | Current Version | Previous Version | Text Only | Print | Product List | Glossary On
Versions: 1 2 3 4 5 6 7 8 9 10 11 12 13 14 15 16 17
000
FTUS45 KTWC 252340
TAFDUG
TAF
KDUG 252340Z 2600/2624 29010KT P6SM SCT070 SCT120
     FM260200 35009KT P6SM FEW070 BKN100
     FM260700 VRB04KT P6SM SCT100 BKN200
     FM262000 33010KT P6SM SCT070=

USA.gov is the U.S. government's official web portal to all federal, state and local government web resources and services.